sensor_id;sensor_type;location;lat;lon;timestamp;pressure;altitude;pressure_sealevel;temperature
35960;BMP280;22043;50.970;7.192;2023-05-10T00:01:16;98504.53;;;13.44
35960;BMP280;22043;50.970;7.192;2023-05-10T00:03:41;98497.53;;;13.43
35960;BMP280;22043;50.970;7.192;2023-05-10T00:06:07;98501.47;;;13.42
35960;BMP280;22043;50.970;7.192;2023-05-10T00:08:32;98496.31;;;13.44
35960;BMP280;22043;50.970;7.192;2023-05-10T00:10:58;98498.28;;;13.44
35960;BMP280;22043;50.970;7.192;2023-05-10T00:13:23;98503.41;;;13.42
35960;BMP280;22043;50.970;7.192;2023-05-10T00:15:48;98494.66;;;13.47
35960;BMP280;22043;50.970;7.192;2023-05-10T00:18:14;98498.72;;;13.42
35960;BMP280;22043;50.970;7.192;2023-05-10T00:20:39;98497.94;;;13.42
35960;BMP280;22043;50.970;7.192;2023-05-10T00:23:04;98501.47;;;13.42
35960;BMP280;22043;50.970;7.192;2023-05-10T00:25:30;98499.03;;;13.44
35960;BMP280;22043;50.970;7.192;2023-05-10T00:27:55;98499.50;;;13.43
35960;BMP280;22043;50.970;7.192;2023-05-10T00:30:22;98502.22;;;13.43
35960;BMP280;22043;50.970;7.192;2023-05-10T00:32:47;98501.03;;;13.44
35960;BMP280;22043;50.970;7.192;2023-05-10T00:35:15;98503.94;;;13.49
35960;BMP280;22043;50.970;7.192;2023-05-10T00:37:40;98498.03;;;13.51
35960;BMP280;22043;50.970;7.192;2023-05-10T00:40:06;98494.66;;;13.47
35960;BMP280;22043;50.970;7.192;2023-05-10T00:42:32;98494.34;;;13.45
35960;BMP280;22043;50.970;7.192;2023-05-10T00:44:57;98486.88;;;13.45
35960;BMP280;22043;50.970;7.192;2023-05-10T00:47:23;98494.03;;;13.43
35960;BMP280;22043;50.970;7.192;2023-05-10T00:49:49;98494.66;;;13.47
35960;BMP280;22043;50.970;7.192;2023-05-10T00:52:15;98490.59;;;13.51
35960;BMP280;22043;50.970;7.192;2023-05-10T00:54:41;98487.97;;;13.48
35960;BMP280;22043;50.970;7.192;2023-05-10T00:57:06;98495.41;;;13.47
35960;BMP280;22043;50.970;7.192;2023-05-10T00:59:32;98496.16;;;13.48
35960;BMP280;22043;50.970;7.192;2023-05-10T01:01:57;98499.34;;;13.46
35960;BMP280;22043;50.970;7.192;2023-05-10T01:04:23;98496.47;;;13.50
35960;BMP280;22043;50.970;7.192;2023-05-10T01:06:52;98489.53;;;13.58
35960;BMP280;22043;50.970;7.192;2023-05-10T01:09:18;98490.09;;;13.53
35960;BMP280;22043;50.970;7.192;2023-05-10T01:11:44;98496.22;;;13.57
35960;BMP280;22043;50.970;7.192;2023-05-10T01:14:10;98494.72;;;13.56
35960;BMP280;22043;50.970;7.192;2023-05-10T01:16:38;98491.22;;;13.56
35960;BMP280;22043;50.970;7.192;2023-05-10T01:19:28;98492.59;;;13.60
35960;BMP280;22043;50.970;7.192;2023-05-10T01:22:19;98497.63;;;13.62
35960;BMP280;22043;50.970;7.192;2023-05-10T01:25:55;98490.31;;;13.59
35960;BMP280;22043;50.970;7.192;2023-05-10T01:30:35;98497.75;;;13.58
35960;BMP280;22043;50.970;7.192;2023-05-10T01:33:11;98514.63;;;13.57
35960;BMP280;22043;50.970;7.192;2023-05-10T01:41:08;98492.84;;;13.53
35960;BMP280;22043;50.970;7.192;2023-05-10T01:43:55;98504.69;;;13.50
35960;BMP280;22043;50.970;7.192;2023-05-10T01:46:28;98493.50;;;13.57
35960;BMP280;22043;50.970;7.192;2023-05-10T01:48:57;98509.63;;;13.55
35960;BMP280;22043;50.970;7.192;2023-05-10T01:51:28;98502.59;;;13.54
35960;BMP280;22043;50.970;7.192;2023-05-10T01:53:59;98491.53;;;13.58
35960;BMP280;22043;50.970;7.192;2023-05-10T01:56:28;98492.41;;;13.54
35960;BMP280;22043;50.970;7.192;2023-05-10T01:58:56;98486.63;;;13.52
35960;BMP280;22043;50.970;7.192;2023-05-10T02:01:21;98493.31;;;13.51
35960;BMP280;22043;50.970;7.192;2023-05-10T02:03:49;98494.38;;;13.54
35960;BMP280;22043;50.970;7.192;2023-05-10T02:06:15;98485.72;;;13.56
35960;BMP280;22043;50.970;7.192;2023-05-10T02:08:44;98493.50;;;13.57
35960;BMP280;22043;50.970;7.192;2023-05-10T02:11:12;98501.53;;;13.51
35960;BMP280;22043;50.970;7.192;2023-05-10T02:13:38;98505.91;;;13.49
35960;BMP280;22043;50.970;7.192;2023-05-10T02:16:05;98514.88;;;13.49
35960;BMP280;22043;50.970;7.192;2023-05-10T02:18:32;98512.59;;;13.48
35960;BMP280;22043;50.970;7.192;2023-05-10T02:20:59;98513.59;;;13.41
35960;BMP280;22043;50.970;7.192;2023-05-10T02:23:26;98507.19;;;13.35
35960;BMP280;22043;50.970;7.192;2023-05-10T02:25:54;98511.28;;;13.31
35960;BMP280;22043;50.970;7.192;2023-05-10T02:28:21;98512.63;;;13.26
35960;BMP280;22043;50.970;7.192;2023-05-10T02:30:47;98513.25;;;13.30
35960;BMP280;22043;50.970;7.192;2023-05-10T02:33:13;98511.38;;;13.27
35960;BMP280;22043;50.970;7.192;2023-05-10T02:35:39;98515.97;;;13.30
35960;BMP280;22043;50.970;7.192;2023-05-10T02:38:06;98518.72;;;13.30
35960;BMP280;22043;50.970;7.192;2023-05-10T02:40:32;98526.59;;;13.28
35960;BMP280;22043;50.970;7.192;2023-05-10T02:42:59;98524.09;;;13.21
35960;BMP280;22043;50.970;7.192;2023-05-10T02:45:27;98531.25;;;13.18
35960;BMP280;22043;50.970;7.192;2023-05-10T02:47:54;98522.88;;;13.13
35960;BMP280;22043;50.970;7.192;2023-05-10T02:50:21;98527.09;;;13.14
35960;BMP280;22043;50.970;7.192;2023-05-10T02:52:51;98526.66;;;13.15
35960;BMP280;22043;50.970;7.192;2023-05-10T02:55:22;98525.13;;;13.14
35960;BMP280;22043;50.970;7.192;2023-05-10T02:57:59;98523.63;;;13.13
35960;BMP280;22043;50.970;7.192;2023-05-10T03:00:25;98534.22;;;13.11
35960;BMP280;22043;50.970;7.192;2023-05-10T03:02:51;98534.66;;;13.10
35960;BMP280;22043;50.970;7.192;2023-05-10T03:05:16;98537.72;;;13.12
35960;BMP280;22043;50.970;7.192;2023-05-10T03:07:42;98538.16;;;13.10
35960;BMP280;22043;50.970;7.192;2023-05-10T03:10:08;98534.22;;;13.11
35960;BMP280;22043;50.970;7.192;2023-05-10T03:15:51;98536.81;;;13.15
35960;BMP280;22043;50.970;7.192;2023-05-10T03:18:28;98538.28;;;13.07
35960;BMP280;22043;50.970;7.192;2023-05-10T03:20:59;98538.28;;;13.07
35960;BMP280;22043;50.970;7.192;2023-05-10T03:23:33;98542.44;;;13.11
35960;BMP280;22043;50.970;7.192;2023-05-10T03:26:00;98542.25;;;13.06
35960;BMP280;22043;50.970;7.192;2023-05-10T03:28:26;98543.50;;;13.14
35960;BMP280;22043;50.970;7.192;2023-05-10T03:30:53;98549.22;;;13.07
35960;BMP280;22043;50.970;7.192;2023-05-10T03:33:19;98553.06;;;13.09
35960;BMP280;22043;50.970;7.192;2023-05-10T03:35:46;98558.19;;;13.07
35960;BMP280;22043;50.970;7.192;2023-05-10T03:38:12;98553.47;;;13.08
35960;BMP280;22043;50.970;7.192;2023-05-10T03:40:38;98555.97;;;13.15
35960;BMP280;22043;50.970;7.192;2023-05-10T03:43:04;98549.56;;;13.09
35960;BMP280;22043;50.970;7.192;2023-05-10T03:45:30;98554.44;;;13.14
35960;BMP280;22043;50.970;7.192;2023-05-10T03:47:57;98556.88;;;13.12
35960;BMP280;22043;50.970;7.192;2023-05-10T03:50:23;98558.09;;;13.11
35960;BMP280;22043;50.970;7.192;2023-05-10T03:52:49;98570.00;;;13.17
35960;BMP280;22043;50.970;7.192;2023-05-10T03:55:15;98567.81;;;13.12
35960;BMP280;22043;50.970;7.192;2023-05-10T03:57:41;98561.94;;;13.13
35960;BMP280;22043;50.970;7.192;2023-05-10T04:00:07;98564.31;;;13.11
35960;BMP280;22043;50.970;7.192;2023-05-10T04:02:39;98565.53;;;13.10
35960;BMP280;22043;50.970;7.192;2023-05-10T04:05:07;98559.81;;;13.17
35960;BMP280;22043;50.970;7.192;2023-05-10T04:07:32;98570.09;;;13.26
35960;BMP280;22043;50.970;7.192;2023-05-10T04:09:58;98575.03;;;13.18
35960;BMP280;22043;50.970;7.192;2023-05-10T04:12:23;98563.97;;;13.22
35960;BMP280;22043;50.970;7.192;2023-05-10T04:14:49;98566.69;;;13.22
35960;BMP280;22043;50.970;7.192;2023-05-10T04:17:14;98569.44;;;13.22
35960;BMP280;22043;50.970;7.192;2023-05-10T04:19:40;98562.16;;;13.28
35960;BMP280;22043;50.970;7.192;2023-05-10T04:22:05;98564.91;;;13.28
35960;BMP280;22043;50.970;7.192;2023-05-10T04:24:30;98562.81;;;13.32
35960;BMP280;22043;50.970;7.192;2023-05-10T04:26:56;98559.88;;;13.27
35960;BMP280;22043;50.970;7.192;2023-05-10T04:29:21;98572.25;;;13.31
35960;BMP280;22043;50.970;7.192;2023-05-10T04:31:47;98573.78;;;13.32
35960;BMP280;22043;50.970;7.192;2023-05-10T04:34:12;98571.03;;;13.32
35960;BMP280;22043;50.970;7.192;2023-05-10T04:36:37;98569.38;;;13.35
35960;BMP280;22043;50.970;7.192;2023-05-10T04:39:03;98573.78;;;13.32
35960;BMP280;22043;50.970;7.192;2023-05-10T04:41:29;98571.16;;;13.29
35960;BMP280;22043;50.970;7.192;2023-05-10T04:43:54;98569.69;;;13.37
35960;BMP280;22043;50.970;7.192;2023-05-10T04:46:20;98567.72;;;13.37
35960;BMP280;22043;50.970;7.192;2023-05-10T04:48:45;98571.84;;;13.42
35960;BMP280;22043;50.970;7.192;2023-05-10T04:51:11;98581.28;;;13.41
35960;BMP280;22043;50.970;7.192;2023-05-10T04:53:45;98575.28;;;13.33
35960;BMP280;22043;50.970;7.192;2023-05-10T04:56:15;98576.69;;;13.38
35960;BMP280;22043;50.970;7.192;2023-05-10T04:58:41;98580.75;;;13.33
35960;BMP280;22043;50.970;7.192;2023-05-10T05:01:07;98586.22;;;13.33
35960;BMP280;22043;50.970;7.192;2023-05-10T05:03:33;98580.66;;;13.37
35960;BMP280;22043;50.970;7.192;2023-05-10T05:05:59;98585.69;;;13.38
35960;BMP280;22043;50.970;7.192;2023-05-10T05:08:24;98591.19;;;13.38
35960;BMP280;22043;50.970;7.192;2023-05-10T05:10:50;98590.19;;;13.32
35960;BMP280;22043;50.970;7.192;2023-05-10T05:13:15;98594.59;;;13.30
35960;BMP280;22043;50.970;7.192;2023-05-10T05:15:41;98595.34;;;13.30
35960;BMP280;22043;50.970;7.192;2023-05-10T05:18:06;98597.47;;;13.26
35960;BMP280;22043;50.970;7.192;2023-05-10T05:20:32;98602.94;;;13.26
35960;BMP280;22043;50.970;7.192;2023-05-10T05:22:59;98604.91;;;13.26
35960;BMP280;22043;50.970;7.192;2023-05-10T05:25:24;98613.19;;;13.35
35960;BMP280;22043;50.970;7.192;2023-05-10T05:27:50;98612.53;;;13.31
35960;BMP280;22043;50.970;7.192;2023-05-10T05:30:15;98613.88;;;13.26
35960;BMP280;22043;50.970;7.192;2023-05-10T05:32:41;98623.72;;;13.23
35960;BMP280;22043;50.970;7.192;2023-05-10T05:35:06;98623.72;;;13.23
35960;BMP280;22043;50.970;7.192;2023-05-10T05:37:32;98622.59;;;13.21
35960;BMP280;22043;50.970;7.192;2023-05-10T05:39:57;98623.06;;;13.19
35960;BMP280;22043;50.970;7.192;2023-05-10T05:42:23;98619.88;;;13.21
35960;BMP280;22043;50.970;7.192;2023-05-10T05:44:48;98629.75;;;13.18
35960;BMP280;22043;50.970;7.192;2023-05-10T05:47:17;98629.75;;;13.18
35960;BMP280;22043;50.970;7.192;2023-05-10T05:49:42;98631.16;;;13.23
35960;BMP280;22043;50.970;7.192;2023-05-10T05:52:11;98626.91;;;13.22
35960;BMP280;22043;50.970;7.192;2023-05-10T05:54:36;98633.31;;;13.28
35960;BMP280;22043;50.970;7.192;2023-05-10T05:57:02;98630.41;;;13.22
35960;BMP280;22043;50.970;7.192;2023-05-10T05:59:28;98636.81;;;13.29
35960;BMP280;22043;50.970;7.192;2023-05-10T06:01:54;98646.34;;;13.37
35960;BMP280;22043;50.970;7.192;2023-05-10T06:04:19;98640.97;;;13.33
35960;BMP280;22043;50.970;7.192;2023-05-10T06:06:45;98642.66;;;13.31
35960;BMP280;22043;50.970;7.192;2023-05-10T06:09:11;98649.97;;;13.34
35960;BMP280;22043;50.970;7.192;2023-05-10T06:11:37;98652.25;;;13.35
35960;BMP280;22043;50.970;7.192;2023-05-10T06:14:04;98662.63;;;13.40
35960;BMP280;22043;50.970;7.192;2023-05-10T06:16:30;98658.50;;;13.36
35960;BMP280;22043;50.970;7.192;2023-05-10T06:18:56;98664.16;;;13.41
35960;BMP280;22043;50.970;7.192;2023-05-10T06:21:21;98670.31;;;13.45
35960;BMP280;22043;50.970;7.192;2023-05-10T06:23:47;98667.25;;;13.43
35960;BMP280;22043;50.970;7.192;2023-05-10T06:26:12;98664.06;;;13.45
35960;BMP280;22043;50.970;7.192;2023-05-10T06:28:39;98671.56;;;13.53
35960;BMP280;22043;50.970;7.192;2023-05-10T06:31:05;98657.13;;;13.53
35960;BMP280;22043;50.970;7.192;2023-05-10T06:33:31;98664.28;;;13.50
35960;BMP280;22043;50.970;7.192;2023-05-10T06:35:56;98680.44;;;13.58
35960;BMP280;22043;50.970;7.192;2023-05-10T06:38:43;98668.53;;;13.51
35960;BMP280;22043;50.970;7.192;2023-05-10T06:41:18;98666.56;;;13.52
35960;BMP280;22043;50.970;7.192;2023-05-10T06:43:44;98677.97;;;13.50
35960;BMP280;22043;50.970;7.192;2023-05-10T06:46:09;98682.66;;;13.50
35960;BMP280;22043;50.970;7.192;2023-05-10T06:48:35;98681.03;;;13.52
35960;BMP280;22043;50.970;7.192;2023-05-10T06:51:00;98684.41;;;13.57
35960;BMP280;22043;50.970;7.192;2023-05-10T06:53:26;98691.09;;;13.56
35960;BMP280;22043;50.970;7.192;2023-05-10T06:55:51;98681.13;;;13.49
35960;BMP280;22043;50.970;7.192;2023-05-10T06:58:17;98690.88;;;13.50
35960;BMP280;22043;50.970;7.192;2023-05-10T07:00:42;98686.59;;;13.49
35960;BMP280;22043;50.970;7.192;2023-05-10T07:03:09;98684.97;;;13.51
35960;BMP280;22043;50.970;7.192;2023-05-10T07:16:18;98702.34;;;13.58
35960;BMP280;22043;50.970;7.192;2023-05-10T07:18:43;98697.44;;;13.52
35960;BMP280;22043;50.970;7.192;2023-05-10T07:21:09;98700.38;;;13.58
35960;BMP280;22043;50.970;7.192;2023-05-10T07:23:34;98702.94;;;13.52
35960;BMP280;22043;50.970;7.192;2023-05-10T07:25:59;98702.94;;;13.52
35960;BMP280;22043;50.970;7.192;2023-05-10T07:28:25;98700.19;;;13.52
35960;BMP280;22043;50.970;7.192;2023-05-10T07:30:51;98710.81;;;13.50
35960;BMP280;22043;50.970;7.192;2023-05-10T07:33:16;98719.53;;;13.58
35960;BMP280;22043;50.970;7.192;2023-05-10T07:35:42;98705.94;;;13.54
35960;BMP280;22043;50.970;7.192;2023-05-10T07:38:08;98706.22;;;13.47
35960;BMP280;22043;50.970;7.192;2023-05-10T07:40:33;98708.41;;;13.52
35960;BMP280;22043;50.970;7.192;2023-05-10T07:42:59;98710.13;;;13.59
35960;BMP280;22043;50.970;7.192;2023-05-10T07:45:27;98707.06;;;13.57
35960;BMP280;22043;50.970;7.192;2023-05-10T07:47:52;98717.88;;;13.61
35960;BMP280;22043;50.970;7.192;2023-05-10T07:50:18;98706.63;;;13.59
35960;BMP280;22043;50.970;7.192;2023-05-10T07:52:43;98712.09;;;13.59
35960;BMP280;22043;50.970;7.192;2023-05-10T07:55:09;98717.78;;;13.64
35960;BMP280;22043;50.970;7.192;2023-05-10T07:57:35;98719.19;;;13.69
35960;BMP280;22043;50.970;7.192;2023-05-10T08:00:00;98720.72;;;13.70
35960;BMP280;22043;50.970;7.192;2023-05-10T08:02:26;98724.09;;;13.74
35960;BMP280;22043;50.970;7.192;2023-05-10T08:04:52;98723.22;;;13.77
35960;BMP280;22043;50.970;7.192;2023-05-10T08:07:18;98734.19;;;13.77
35960;BMP280;22043;50.970;7.192;2023-05-10T08:09:43;98726.06;;;13.73
35960;BMP280;22043;50.970;7.192;2023-05-10T08:12:09;98730.19;;;13.78
35960;BMP280;22043;50.970;7.192;2023-05-10T08:14:34;98731.31;;;13.80
35960;BMP280;22043;50.970;7.192;2023-05-10T08:17:02;98732.84;;;13.81
35960;BMP280;22043;50.970;7.192;2023-05-10T08:19:28;98738.84;;;13.89
35960;BMP280;22043;50.970;7.192;2023-05-10T08:21:53;98734.00;;;13.93
35960;BMP280;22043;50.970;7.192;2023-05-10T08:24:21;98737.38;;;13.97
35960;BMP280;22043;50.970;7.192;2023-05-10T08:26:47;98738.91;;;13.98
35960;BMP280;22043;50.970;7.192;2023-05-10T08:29:13;98734.19;;;13.99
35960;BMP280;22043;50.970;7.192;2023-05-10T08:31:38;98736.47;;;14.00
35960;BMP280;22043;50.970;7.192;2023-05-10T08:34:04;98732.13;;;14.03
35960;BMP280;22043;50.970;7.192;2023-05-10T08:36:29;98734.38;;;14.04
35960;BMP280;22043;50.970;7.192;2023-05-10T08:38:55;98737.47;;;14.06
35960;BMP280;22043;50.970;7.192;2023-05-10T08:41:21;98747.31;;;14.04
35960;BMP280;22043;50.970;7.192;2023-05-10T08:43:50;98739.56;;;14.02
35960;BMP280;22043;50.970;7.192;2023-05-10T08:46:17;98745.09;;;14.11
35960;BMP280;22043;50.970;7.192;2023-05-10T08:48:44;98746.31;;;14.10
35960;BMP280;22043;50.970;7.192;2023-05-10T08:51:15;98745.09;;;14.11
35960;BMP280;22043;50.970;7.192;2023-05-10T08:53:43;98747.66;;;14.06
35960;BMP280;22043;50.970;7.192;2023-05-10T08:56:09;98754.22;;;14.08
35960;BMP280;22043;50.970;7.192;2023-05-10T08:58:36;98756.41;;;14.13
35960;BMP280;22043;50.970;7.192;2023-05-10T09:01:03;98753.50;;;14.17
35960;BMP280;22043;50.970;7.192;2023-05-10T09:03:29;98751.88;;;14.20
35960;BMP280;22043;50.970;7.192;2023-05-10T09:05:55;98762.47;;;14.30
35960;BMP280;22043;50.970;7.192;2023-05-10T09:08:24;98752.88;;;14.35
35960;BMP280;22043;50.970;7.192;2023-05-10T09:10:56;98766.25;;;14.55
35960;BMP280;22043;50.970;7.192;2023-05-10T09:13:23;98763.13;;;14.65
35960;BMP280;22043;50.970;7.192;2023-05-10T09:15:49;98755.56;;;14.79
35960;BMP280;22043;50.970;7.192;2023-05-10T09:18:14;98753.75;;;14.85
35960;BMP280;22043;50.970;7.192;2023-05-10T09:20:40;98766.75;;;14.93
35960;BMP280;22043;50.970;7.192;2023-05-10T09:23:14;98761.56;;;14.86
35960;BMP280;22043;50.970;7.192;2023-05-10T09:25:48;98767.56;;;14.72
35960;BMP280;22043;50.970;7.192;2023-05-10T09:31:16;98773.09;;;14.50
35960;BMP280;22043;50.970;7.192;2023-05-10T09:33:46;98779.09;;;14.36
35960;BMP280;22043;50.970;7.192;2023-05-10T09:36:13;98779.28;;;14.20
35960;BMP280;22043;50.970;7.192;2023-05-10T09:38:57;98783.38;;;14.15
35960;BMP280;22043;50.970;7.192;2023-05-10T09:41:23;98782.94;;;14.04
35960;BMP280;22043;50.970;7.192;2023-05-10T09:43:56;98798.16;;;14.05
35960;BMP280;22043;50.970;7.192;2023-05-10T09:46:40;98794.28;;;13.93
35960;BMP280;22043;50.970;7.192;2023-05-10T09:49:25;98794.28;;;13.93
35960;BMP280;22043;50.970;7.192;2023-05-10T09:52:18;98787.50;;;13.85
35960;BMP280;22043;50.970;7.192;2023-05-10T09:55:00;98797.16;;;13.90
35960;BMP280;22043;50.970;7.192;2023-05-10T09:58:08;98803.69;;;13.92
35960;BMP280;22043;50.970;7.192;2023-05-10T10:04:03;98792.63;;;13.96
35960;BMP280;22043;50.970;7.192;2023-05-10T10:06:46;98793.06;;;13.94
35960;BMP280;22043;50.970;7.192;2023-05-10T10:09:15;98793.91;;;14.04
35960;BMP280;22043;50.970;7.192;2023-05-10T10:11:43;98799.38;;;14.04
35960;BMP280;22043;50.970;7.192;2023-05-10T10:14:12;98803.75;;;14.14
35960;BMP280;22043;50.970;7.192;2023-05-10T10:16:40;98795.72;;;14.20
35960;BMP280;22043;50.970;7.192;2023-05-10T10:19:06;98807.41;;;14.33
35960;BMP280;22043;50.970;7.192;2023-05-10T10:21:32;98798.59;;;14.38
35960;BMP280;22043;50.970;7.192;2023-05-10T10:23:58;98794.09;;;14.44
35960;BMP280;22043;50.970;7.192;2023-05-10T10:26:26;98793.88;;;14.60
35960;BMP280;22043;50.970;7.192;2023-05-10T10:31:43;98804.22;;;14.87
35960;BMP280;22043;50.970;7.192;2023-05-10T10:34:21;98818.63;;;15.00
35960;BMP280;22043;50.970;7.192;2023-05-10T10:36:57;98811.72;;;14.87
35960;BMP280;22043;50.970;7.192;2023-05-10T10:39:24;98814.38;;;14.68
35960;BMP280;22043;50.970;7.192;2023-05-10T10:41:57;98816.31;;;14.68
35960;BMP280;22043;50.970;7.192;2023-05-10T10:44:24;98821.63;;;14.62
35960;BMP280;22043;50.970;7.192;2023-05-10T10:52:35;98821.44;;;14.35
35960;BMP280;22043;50.970;7.192;2023-05-10T10:55:19;98821.78;;;14.24
35960;BMP280;22043;50.970;7.192;2023-05-10T10:57:49;98828.25;;;14.30
35960;BMP280;22043;50.970;7.192;2023-05-10T11:00:25;98821.56;;;14.31
35960;BMP280;22043;50.970;7.192;2023-05-10T11:03:09;98814.09;;;14.32
35960;BMP280;22043;50.970;7.192;2023-05-10T11:05:48;98817.53;;;14.45
35960;BMP280;22043;50.970;7.192;2023-05-10T11:08:15;98818.56;;;14.60
35960;BMP280;22043;50.970;7.192;2023-05-10T11:10:52;98813.25;;;14.66
35960;BMP280;22043;50.970;7.192;2023-05-10T11:13:30;98811.53;;;14.81
35960;BMP280;22043;50.970;7.192;2023-05-10T11:15:56;98821.63;;;14.93
35960;BMP280;22043;50.970;7.192;2023-05-10T11:18:29;98821.69;;;15.02
35960;BMP280;22043;50.970;7.192;2023-05-10T11:20:59;98824.94;;;15.10
35960;BMP280;22043;50.970;7.192;2023-05-10T11:26:09;98822.28;;;15.38
35960;BMP280;22043;50.970;7.192;2023-05-10T11:28:47;98826.91;;;15.50
35960;BMP280;22043;50.970;7.192;2023-05-10T11:31:17;98821.13;;;15.57
35960;BMP280;22043;50.970;7.192;2023-05-10T11:33:47;98820.38;;;15.66
35960;BMP280;22043;50.970;7.192;2023-05-10T11:38:51;98825.28;;;15.89
35960;BMP280;22043;50.970;7.192;2023-05-10T11:41:18;98828.50;;;15.87
35960;BMP280;22043;50.970;7.192;2023-05-10T11:43:47;98840.09;;;15.73
35960;BMP280;22043;50.970;7.192;2023-05-10T11:46:14;98826.16;;;15.68
35960;BMP280;22043;50.970;7.192;2023-05-10T11:48:41;98832.16;;;15.66
35960;BMP280;22043;50.970;7.192;2023-05-10T11:51:10;98834.88;;;15.66
35960;BMP280;22043;50.970;7.192;2023-05-10T11:53:36;98835.59;;;15.48
35960;BMP280;22043;50.970;7.192;2023-05-10T11:56:10;98841.63;;;15.34
35960;BMP280;22043;50.970;7.192;2023-05-10T11:58:37;98843.56;;;15.15
35960;BMP280;22043;50.970;7.192;2023-05-10T12:01:06;98842.72;;;15.06
35960;BMP280;22043;50.970;7.192;2023-05-10T12:03:32;98851.56;;;15.00
35960;BMP280;22043;50.970;7.192;2023-05-10T12:05:58;98849.53;;;14.92
35960;BMP280;22043;50.970;7.192;2023-05-10T12:08:26;98851.53;;;14.91
35960;BMP280;22043;50.970;7.192;2023-05-10T12:10:53;98854.56;;;14.93
35960;BMP280;22043;50.970;7.192;2023-05-10T12:13:20;98856.16;;;15.03
35960;BMP280;22043;50.970;7.192;2023-05-10T12:15:46;98851.22;;;15.29
35960;BMP280;22043;50.970;7.192;2023-05-10T12:18:13;98853.91;;;15.51
35960;BMP280;22043;50.970;7.192;2023-05-10T12:20:39;98857.91;;;15.69
35960;BMP280;22043;50.970;7.192;2023-05-10T12:23:08;98856.56;;;15.73
35960;BMP280;22043;50.970;7.192;2023-05-10T12:25:38;98848.97;;;15.77
35960;BMP280;22043;50.970;7.192;2023-05-10T12:28:07;98851.38;;;15.84
35960;BMP280;22043;50.970;7.192;2023-05-10T12:30:34;98846.66;;;15.85
35960;BMP280;22043;50.970;7.192;2023-05-10T12:33:13;98850.63;;;15.84
35960;BMP280;22043;50.970;7.192;2023-05-10T12:35:45;98850.16;;;15.76
35960;BMP280;22043;50.970;7.192;2023-05-10T12:38:44;98857.91;;;15.59
35960;BMP280;22043;50.970;7.192;2023-05-10T12:41:16;98865.63;;;15.43
35960;BMP280;22043;50.970;7.192;2023-05-10T12:43:42;98865.50;;;15.46
35960;BMP280;22043;50.970;7.192;2023-05-10T12:46:15;98866.75;;;15.54
35960;BMP280;22043;50.970;7.192;2023-05-10T12:48:42;98866.25;;;15.56
35960;BMP280;22043;50.970;7.192;2023-05-10T12:51:09;98873.97;;;15.70
35960;BMP280;22043;50.970;7.192;2023-05-10T12:53:37;98871.72;;;15.87
35960;BMP280;22043;50.970;7.192;2023-05-10T12:56:03;98853.38;;;16.02
35960;BMP280;22043;50.970;7.192;2023-05-10T12:58:28;98863.19;;;16.21
35960;BMP280;22043;50.970;7.192;2023-05-10T13:00:54;98864.72;;;16.32
35960;BMP280;22043;50.970;7.192;2023-05-10T13:03:21;98869.63;;;16.37
35960;BMP280;22043;50.970;7.192;2023-05-10T13:05:47;98862.25;;;16.43
35960;BMP280;22043;50.970;7.192;2023-05-10T13:08:13;98872.81;;;16.63
35960;BMP280;22043;50.970;7.192;2023-05-10T13:10:38;98862.25;;;16.61
35960;BMP280;22043;50.970;7.192;2023-05-10T13:13:04;98862.88;;;16.56
35960;BMP280;22043;50.970;7.192;2023-05-10T13:15:30;98863.91;;;16.59
35960;BMP280;22043;50.970;7.192;2023-05-10T13:17:56;98853.09;;;16.46
35960;BMP280;22043;50.970;7.192;2023-05-10T13:20:21;98861.97;;;16.50
35960;BMP280;22043;50.970;7.192;2023-05-10T13:22:47;98856.13;;;16.48
35960;BMP280;22043;50.970;7.192;2023-05-10T13:25:13;98852.34;;;16.45
35960;BMP280;22043;50.970;7.192;2023-05-10T13:27:39;98856.13;;;16.48
35960;BMP280;22043;50.970;7.192;2023-05-10T13:30:06;98855.22;;;16.60
35960;BMP280;22043;50.970;7.192;2023-05-10T13:32:32;98862.84;;;16.65
35960;BMP280;22043;50.970;7.192;2023-05-10T13:34:58;98864.84;;;16.74
35960;BMP280;22043;50.970;7.192;2023-05-10T13:37:23;98857.00;;;16.81
35960;BMP280;22043;50.970;7.192;2023-05-10T13:39:49;98860.50;;;16.82
35960;BMP280;22043;50.970;7.192;2023-05-10T13:42:14;98853.66;;;16.77
35960;BMP280;22043;50.970;7.192;2023-05-10T13:44:40;98852.00;;;16.71
35960;BMP280;22043;50.970;7.192;2023-05-10T13:47:06;98848.81;;;16.63
35960;BMP280;22043;50.970;7.192;2023-05-10T13:49:32;98851.41;;;16.58
35960;BMP280;22043;50.970;7.192;2023-05-10T13:51:57;98860.41;;;16.67
35960;BMP280;22043;50.970;7.192;2023-05-10T13:54:23;98857.66;;;16.67
35960;BMP280;22043;50.970;7.192;2023-05-10T13:56:49;98850.13;;;16.77
35960;BMP280;22043;50.970;7.192;2023-05-10T13:59:14;98853.81;;;16.83
35960;BMP280;22043;50.970;7.192;2023-05-10T14:01:41;98844.31;;;16.84
35960;BMP280;22043;50.970;7.192;2023-05-10T14:04:06;98840.75;;;16.93
35960;BMP280;22043;50.970;7.192;2023-05-10T14:06:36;98848.50;;;17.12
35960;BMP280;22043;50.970;7.192;2023-05-10T14:09:02;98843.53;;;17.26
35960;BMP280;22043;50.970;7.192;2023-05-10T14:11:28;98840.78;;;17.26
35960;BMP280;22043;50.970;7.192;2023-05-10T14:13:53;98836.03;;;17.26
35960;BMP280;22043;50.970;7.192;2023-05-10T14:16:19;98844.94;;;17.21
35960;BMP280;22043;50.970;7.192;2023-05-10T14:18:45;98847.88;;;17.17
35960;BMP280;22043;50.970;7.192;2023-05-10T14:21:12;98851.50;;;17.24
35960;BMP280;22043;50.970;7.192;2023-05-10T14:23:38;98843.28;;;17.14
35960;BMP280;22043;50.970;7.192;2023-05-10T14:26:04;98848.75;;;17.24
35960;BMP280;22043;50.970;7.192;2023-05-10T14:28:29;98840.09;;;17.07
35960;BMP280;22043;50.970;7.192;2023-05-10T14:30:55;98854.50;;;17.02
35960;BMP280;22043;50.970;7.192;2023-05-10T14:33:21;98851.94;;;16.89
35960;BMP280;22043;50.970;7.192;2023-05-10T14:35:47;98853.66;;;16.77
35960;BMP280;22043;50.970;7.192;2023-05-10T14:38:14;98851.81;;;16.74
35960;BMP280;22043;50.970;7.192;2023-05-10T14:40:39;98844.53;;;16.62
35960;BMP280;22043;50.970;7.192;2023-05-10T14:43:05;98850.31;;;16.73
35960;BMP280;22043;50.970;7.192;2023-05-10T14:45:31;98863.63;;;16.66
35960;BMP280;22043;50.970;7.192;2023-05-10T14:47:57;98854.78;;;16.62
35960;BMP280;22043;50.970;7.192;2023-05-10T14:50:22;98854.16;;;16.67
35960;BMP280;22043;50.970;7.192;2023-05-10T14:52:48;98850.94;;;16.59
35960;BMP280;22043;50.970;7.192;2023-05-10T14:55:14;98848.38;;;16.46